LiveATC.Net - Listen to live air traffic control over the Internet!


ICAO: LSGG  IATA: GVA   Airport: Geneve-Cointrin International Airport
City: Geneva
Country: Switzerland   Continent: Europe
LSGG METAR Weather: LSGG 271350Z 21011KT 9999 FEW040 SCT120 27/10 Q1014 NOSIG
LSGG Flight Activity (FlightAware)
LSGG Webcam: (Airport Webcams)
LSGG Tower
Feed Status: UP   Listeners: 7
Listen right in your browser - requires Flash (in browser, requires Flash)
Click here to listen with your own player (launches your MP3 player)
LSGG Tower Audio Archives
FacilityFrequency
Geneva Tower118.700

Geneva Live Feed Web Site

NOTICE

Unauthorized use prohibited. See LiveATC.net Terms of Service


Find LiveATC Audio Streams


Airport/ARTCC Code

Frequency
(e.g., 124.400, 128.75)
Site-wide search

Browse LiveATC Feeds
LiveATC Coverage Map
Top 50 LiveATC Feeds
Bad Weather Areas

LiveATC FAQ
Offer a LiveATC Feed
Contact LiveATC.net
Press Inquiries

LiveATC on iPhone
LiveATC on Android

Windows Phone
Windows 8/10

LiveATC Mobile
(Mobile browser)

ATC Audio Archives
Interesting Recordings

LiveATC Forums


Home Page
About LiveATC.net
Make a Donation
LiveATC Store

Terms of Use
Privacy Policy

Canadian Air Freqs

AIRMETs/SIGMETs

FAA Airport Status
Nat'l Airspace Status
Arrival Demand Charts


Server Software By:
Icecast.org
Liquidsoap